This is the latest recevied weather packets stored in our database for station/object AA0PB. If no packets are shown the sender has not sent any weather packets the latest 10 day(s).
| Time | Temp. | Humidity | Pressure | Rain* | Wind** | Luminosity | Snow |
|---|---|---|---|---|---|---|---|
| 1777923895 | 20° C | 68% | 1013.8 hPa | 0 mm | - | 96 W/m² | - |
| 1777923591 | 20.56° C | 67% | 1013.8 hPa | 0 mm | - | 700 W/m² | - |
| 1777923289 | 20.56° C | 68% | 1013.8 hPa | 0 mm | - | 694 W/m² | - |
| 1777922988 | 20.56° C | 66% | 1013.6 hPa | 0 mm | - | 690 W/m² | - |
| 1777922684 | 18.33° C | 72% | 1013.8 hPa | 0 mm | - | 684 W/m² | - |
| 1777922383 | 18.33° C | 73% | 1013.8 hPa | 0 mm | - | 681 W/m² | - |
| 1777922081 | 18.33° C | 72% | 1014 hPa | 0 mm | - | 680 W/m² | - |
| 1777921776 | 19.44° C | 70% | 1014.1 hPa | 0 mm | - | 680 W/m² | - |
| 1777921472 | 18.89° C | 69% | 1013.7 hPa | 0 mm | - | 671 W/m² | - |
| 1777921169 | 18.89° C | 67% | 1014.1 hPa | 0 mm | - | 671 W/m² | - |
| 1777920866 | 19.44° C | 66% | 1014.1 hPa | 0 mm | - | 671 W/m² | - |
| 1777920562 | 18.33° C | 71% | 1014.1 hPa | 0 mm | - | 690 W/m² | - |
| 1777920258 | 17.78° C | 74% | 1014.2 hPa | 0 mm | - | 674 W/m² | - |
| 1777919954 | 16.67° C | 75% | 1014.1 hPa | 0 mm | - | 739 W/m² | - |
| 1777919652 | 16.67° C | 77% | 1014.1 hPa | 0 mm | - | 557 W/m² | - |
| 1777919349 | 16.67° C | 77% | 1014.2 hPa | 0 mm | - | 290 W/m² | - |
| 1777919046 | 17.22° C | 77% | 1014.2 hPa | 0 mm | - | 287 W/m² | - |
| 1777918743 | 17.22° C | 76% | 1014 hPa | 0 mm | - | 631 W/m² | - |
| 1777918440 | 17.78° C | 74% | 1014.2 hPa | 0 mm | - | 413 W/m² | - |
| 1777918139 | 16.11° C | 79% | 1014.2 hPa | 0 mm | - | 316 W/m² | - |
| 1777917837 | 15.56° C | 80% | 1014.1 hPa | 0 mm | - | 243 W/m² | - |
| 1777917535 | 16.67° C | 77% | 1014.2 hPa | 0 mm | - | 233 W/m² | - |
| 1777917231 | 16.67° C | 77% | 1014.2 hPa | 0 mm | - | 272 W/m² | - |
| 1777916930 | 16.11° C | 79% | 1014.2 hPa | 0 mm | - | 266 W/m² | - |
| 1777916627 | 16.67° C | 78% | 1014.3 hPa | 0 mm | - | 266 W/m² | - |
* Rain latest hour (hover to see other rain measurements)
** Current wind speed in m/s (hover to see current wind gust speed)